Time;durP1;ratioP1;P1;durP2;ratioP2;P2;SDS_P1;SDS_P2;PMS_P1;PMS_P2;Temp;Humidity;BMP_temperature;BMP_pressure;BME280_temperature;BME280_humidity;BME280_pressure;Samples;Min_cycle;Max_cycle;Signal;HPM_P1;HPM_P2
2020/12/08 00:03:45;;;;;;;13.63;2.07;;;;;;;2.13;100.00;97816.16;3896986;74;396257;-76
2020/12/08 00:08:50;;;;;;;3.67;3.10;;;;;;;2.15;100.00;97824.72;3897460;74;396308;-76
2020/12/08 00:13:55;;;;;;;2.60;1.60;;;;;;;2.19;100.00;97817.38;3897699;74;396117;-76
2020/12/08 00:19:00;;;;;;;12.00;1.43;;;;;;;2.19;100.00;97813.30;3899100;74;400236;-76
2020/12/08 00:24:06;;;;;;;2.50;1.90;;;;;;;2.30;100.00;97807.40;3897698;74;392133;-76
2020/12/08 00:29:12;;;;;;;1.40;1.30;;;;;;;2.32;100.00;97804.51;3897641;74;396065;-76
2020/12/08 00:34:17;;;;;;;2.70;2.47;;;;;;;2.27;100.00;97801.36;3897214;74;396307;-76
2020/12/08 00:39:22;;;;;;;3.33;1.57;;;;;;;2.34;100.00;97794.06;3853000;75;394189;-76
2020/12/08 00:44:27;;;;;;;1.97;1.87;;;;;;;2.46;100.00;97792.42;3877509;75;396316;-76
2020/12/08 00:49:32;;;;;;;2.83;2.30;;;;;;;2.32;100.00;97790.17;3871890;75;396261;-76
2020/12/08 00:54:38;;;;;;;2.03;1.83;;;;;;;2.25;100.00;97799.63;3847789;76;391915;-76
2020/12/08 00:59:43;;;;;;;4.60;2.17;;;;;;;2.29;100.00;97793.63;3846480;76;390881;-77
2020/12/08 01:04:48;;;;;;;7.40;3.30;;;;;;;2.32;100.00;97790.17;3845988;76;396135;-76
2020/12/08 01:09:53;;;;;;;7.90;5.70;;;;;;;2.32;100.00;97796.37;3848254;75;396125;-77
2020/12/08 01:14:58;;;;;;;4.07;3.03;;;;;;;2.26;100.00;97784.31;3846321;76;396261;-77
2020/12/08 01:20:05;;;;;;;4.67;2.57;;;;;;;2.39;100.00;97787.71;3847377;75;396293;-77
2020/12/08 01:25:10;;;;;;;2.33;2.13;;;;;;;2.34;100.00;97772.95;3846926;76;394989;-77
2020/12/08 01:30:15;;;;;;;2.43;1.93;;;;;;;2.24;100.00;97770.34;3847044;75;396070;-77
2020/12/08 01:35:21;;;;;;;4.67;3.00;;;;;;;2.26;100.00;97772.11;3846929;76;396062;-77
2020/12/08 01:40:26;;;;;;;2.47;1.60;;;;;;;2.25;100.00;97773.84;3846929;76;396085;-77
2020/12/08 01:45:31;;;;;;;11.50;4.13;;;;;;;2.28;100.00;97772.52;3846863;76;396114;-77
2020/12/08 01:50:36;;;;;;;3.70;3.40;;;;;;;2.28;100.00;97764.94;3847721;75;396350;-77
2020/12/08 01:55:42;;;;;;;5.90;2.33;;;;;;;2.27;100.00;97770.95;3851886;75;383589;-77
2020/12/08 02:00:50;;;;;;;5.03;3.47;;;;;;;2.29;100.00;97766.50;3852598;75;391936;-77
2020/12/08 02:05:55;;;;;;;2.57;2.37;;;;;;;2.31;100.00;97764.20;3872872;74;396346;-77
2020/12/08 02:11:01;;;;;;;2.90;2.30;;;;;;;2.29;100.00;97767.86;3852200;75;391856;-77
2020/12/08 02:16:06;;;;;;;1.33;1.23;;;;;;;2.34;100.00;97767.52;3852301;75;394989;-77
2020/12/08 02:21:11;;;;;;;2.77;2.57;;;;;;;2.34;100.00;97758.03;3852760;75;396110;-77
2020/12/08 02:26:16;;;;;;;3.80;3.20;;;;;;;2.32;100.00;97759.73;3851728;75;395063;-77
2020/12/08 02:31:22;;;;;;;1.77;1.67;;;;;;;2.34;100.00;97764.22;3853000;76;383735;-77
2020/12/08 02:36:27;;;;;;;5.13;2.97;;;;;;;2.33;100.00;97758.59;3852646;75;396035;-77
2020/12/08 02:41:32;;;;;;;6.17;2.10;;;;;;;2.33;100.00;97761.30;3852353;75;394239;-77
2020/12/08 02:46:37;;;;;;;2.60;2.40;;;;;;;2.34;100.00;97762.86;3852713;75;394989;-77
2020/12/08 02:51:43;;;;;;;2.80;2.17;;;;;;;2.38;100.00;97763.68;3851333;73;396029;-76
2020/12/08 02:56:48;;;;;;;3.43;1.60;;;;;;;2.35;100.00;97762.47;3869772;73;396069;-77
2020/12/08 03:01:55;;;;;;;3.53;3.23;;;;;;;2.31;100.00;97771.74;3905192;74;396268;-76
2020/12/08 03:07:00;;;;;;;6.67;2.20;;;;;;;2.19;100.00;97765.84;3946489;73;396306;-76
2020/12/08 03:12:10;;;;;;;3.03;2.20;;;;;;;2.02;100.00;97757.02;3892144;74;396027;-77
2020/12/08 03:17:15;;;;;;;8.13;3.50;;;;;;;1.95;100.00;97765.06;3860599;75;392112;-77
2020/12/08 03:22:20;;;;;;;1.50;1.23;;;;;;;1.62;100.00;97774.07;3860739;75;394056;-77
2020/12/08 03:27:25;;;;;;;2.90;1.50;;;;;;;1.44;100.00;97782.37;3899217;73;396061;-77
2020/12/08 03:32:30;;;;;;;1.80;1.70;;;;;;;1.27;100.00;97786.47;3958274;73;396268;-77
2020/12/08 03:37:35;;;;;;;2.90;1.87;;;;;;;1.24;100.00;97777.72;3957613;74;396244;-77
2020/12/08 03:42:40;;;;;;;4.10;2.30;;;;;;;1.25;100.00;97772.51;3958668;74;394994;-77
2020/12/08 03:47:45;;;;;;;4.27;3.10;;;;;;;1.26;100.00;97769.21;3930484;74;396069;-77
2020/12/08 03:52:50;;;;;;;1.60;1.43;;;;;;;1.20;100.00;97749.83;3949795;73;393985;-77
2020/12/08 03:57:56;;;;;;;1.30;1.20;;;;;;;1.17;100.00;97755.21;3898922;74;383571;-77
2020/12/08 04:03:01;;;;;;;3.33;2.83;;;;;;;1.43;100.00;97759.94;3844654;75;396096;-78
2020/12/08 04:08:06;;;;;;;2.13;2.03;;;;;;;1.35;100.00;97755.60;3882476;75;383851;-77
2020/12/08 04:13:11;;;;;;;8.10;3.43;;;;;;;1.33;100.00;97759.83;3883002;75;393997;-77
2020/12/08 04:18:16;;;;;;;1.93;1.83;;;;;;;1.19;100.00;97749.62;3881969;75;396016;-77
2020/12/08 04:23:23;;;;;;;2.37;2.17;;;;;;;1.19;100.00;97756.39;3883100;74;393947;-77
2020/12/08 04:28:28;;;;;;;2.33;1.87;;;;;;;1.22;100.00;97756.22;3882101;74;396105;-77
2020/12/08 04:33:33;;;;;;;1.17;1.07;;;;;;;1.25;100.00;97760.32;3881981;75;391868;-78
2020/12/08 04:38:39;;;;;;;1.70;1.60;;;;;;;1.29;100.00;97773.34;3882356;75;396164;-77
2020/12/08 04:43:45;;;;;;;2.57;2.47;;;;;;;1.60;100.00;97779.08;3882121;74;396067;-77
2020/12/08 04:48:51;;;;;;;4.47;4.17;;;;;;;1.68;100.00;97784.00;3881493;75;396122;-77
2020/12/08 04:53:56;;;;;;;2.50;2.33;;;;;;;1.56;100.00;97781.55;3841719;74;396069;-76
2020/12/08 04:59:01;;;;;;;7.73;3.13;;;;;;;1.53;100.00;97767.96;3765874;76;394256;-77
2020/12/08 05:04:06;;;;;;;3.13;2.70;;;;;;;1.53;100.00;97763.90;3781513;76;396028;-77
2020/12/08 05:09:11;;;;;;;2.90;2.20;;;;;;;1.49;100.00;97767.16;3781604;76;396288;-77
2020/12/08 05:14:16;;;;;;;2.77;1.27;;;;;;;1.47;100.00;97760.74;3781718;76;391924;-77
2020/12/08 05:19:22;;;;;;;2.30;2.00;;;;;;;1.51;100.00;97764.28;3782172;76;396064;-76
2020/12/08 05:24:29;;;;;;;3.20;2.30;;;;;;;1.54;100.00;97759.45;3782394;76;396303;-76
2020/12/08 05:29:37;;;;;;;2.60;2.20;;;;;;;1.57;100.00;97760.66;3781396;76;396069;-77
2020/12/08 05:34:44;;;;;;;2.10;1.90;;;;;;;1.60;100.00;97761.46;3781746;76;396296;-76
2020/12/08 05:39:49;;;;;;;4.40;2.03;;;;;;;1.65;100.00;97760.34;3781566;76;396081;-76
2020/12/08 05:44:54;;;;;;;1.30;1.20;;;;;;;1.68;100.00;97769.86;3782568;76;392127;-77
2020/12/08 05:50:02;;;;;;;3.37;2.00;;;;;;;1.70;100.00;97773.55;3781896;76;396306;-77
2020/12/08 05:55:15;;;;;;;6.13;2.03;;;;;;;1.73;100.00;97774.16;3816909;75;393944;-77
2020/12/08 06:00:25;;;;;;;2.20;2.10;;;;;;;1.77;100.00;97770.34;3818910;76;396065;-77
2020/12/08 06:05:33;;;;;;;3.90;2.77;;;;;;;1.90;100.00;97757.28;3780567;75;396126;-77
2020/12/08 06:10:52;;;;;;;1.67;1.30;;;;;;;1.98;100.00;97751.53;3799269;76;396273;-77
2020/12/08 06:16:02;;;;;;;4.20;3.80;;;;;;;1.88;100.00;97743.31;3810575;76;396326;-77
2020/12/08 06:21:22;;;;;;;3.07;1.17;;;;;;;1.83;100.00;97755.88;3753015;77;396295;-77
2020/12/08 06:26:37;;;;;;;1.77;1.67;;;;;;;1.85;100.00;97761.70;3752077;77;395036;-76
2020/12/08 06:31:47;;;;;;;2.47;2.37;;;;;;;1.83;100.00;97751.80;3810001;76;396071;-77
2020/12/08 06:36:53;;;;;;;1.53;1.43;;;;;;;1.84;100.00;97750.66;3816561;76;396066;-76
2020/12/08 06:41:58;;;;;;;3.90;1.63;;;;;;;1.84;100.00;97745.23;3828233;75;396368;-76
2020/12/08 06:47:03;;;;;;;15.53;3.80;;;;;;;1.87;100.00;97755.31;3816625;75;396085;-77
2020/12/08 06:52:12;;;;;;;4.80;2.83;;;;;;;1.88;100.00;97757.67;3817063;76;396064;-77
2020/12/08 06:57:20;;;;;;;4.93;2.20;;;;;;;1.95;100.00;97756.92;3829679;76;396023;-77
2020/12/08 07:02:26;;;;;;;3.10;2.20;;;;;;;1.93;100.00;97761.97;3753648;76;396271;-77
2020/12/08 07:07:31;;;;;;;2.13;1.57;;;;;;;1.92;100.00;97772.61;3768651;76;396295;-77
2020/12/08 07:12:53;;;;;;;2.17;1.97;;;;;;;1.95;100.00;97780.77;3754834;76;396275;-77
2020/12/08 07:18:06;;;;;;;1.40;1.30;;;;;;;1.99;100.00;97775.37;3770068;77;394028;-78
2020/12/08 07:23:12;;;;;;;1.13;1.03;;;;;;;2.00;100.00;97792.62;3754486;77;392907;-77
2020/12/08 07:28:17;;;;;;;2.63;2.43;;;;;;;2.03;100.00;97795.95;3768569;77;396077;-76
2020/12/08 07:33:24;;;;;;;2.00;1.77;;;;;;;2.04;100.00;97808.92;3754155;77;395241;-77
2020/12/08 07:38:30;;;;;;;2.40;2.30;;;;;;;2.07;100.00;97807.59;3769012;77;394028;-77
2020/12/08 07:43:36;;;;;;;1.97;1.60;;;;;;;2.10;100.00;97797.36;3753767;77;394983;-76
2020/12/08 07:48:41;;;;;;;3.47;3.20;;;;;;;2.17;100.00;97803.43;3764388;76;383791;-76
2020/12/08 07:53:46;;;;;;;2.57;2.37;;;;;;;2.25;100.00;97818.61;3765436;75;396086;-76
2020/12/08 07:58:51;;;;;;;2.00;1.23;;;;;;;2.34;100.00;97827.39;3813363;74;391900;-76
2020/12/08 08:03:57;;;;;;;7.10;1.97;;;;;;;2.38;100.00;97823.38;3860829;75;396077;-76
2020/12/08 08:09:05;;;;;;;1.67;1.57;;;;;;;2.48;100.00;97838.38;3860442;75;391907;-76
2020/12/08 08:14:09;;;;;;;4.40;3.87;;;;;;;2.62;100.00;97826.25;3861138;75;396035;-76
2020/12/08 08:19:14;;;;;;;2.00;1.80;;;;;;;2.75;100.00;97823.42;3860640;75;396079;-76
2020/12/08 08:24:19;;;;;;;3.43;2.40;;;;;;;2.87;100.00;97817.69;3860917;75;396073;-76
2020/12/08 08:29:24;;;;;;;3.27;1.67;;;;;;;2.97;100.00;97815.62;3861184;75;391892;-76
2020/12/08 08:34:29;;;;;;;5.83;3.57;;;;;;;3.03;100.00;97815.45;3860746;75;395209;-76
2020/12/08 08:39:35;;;;;;;12.80;2.20;;;;;;;3.16;100.00;97803.88;3860511;75;391904;-76
2020/12/08 08:44:40;;;;;;;2.60;2.20;;;;;;;3.35;100.00;97813.65;3861113;75;396155;-76
2020/12/08 08:49:45;;;;;;;2.77;2.27;;;;;;;3.46;100.00;97819.33;3861617;75;392110;-76
2020/12/08 08:54:50;;;;;;;1.43;1.33;;;;;;;3.52;100.00;97824.58;3868146;74;387769;-76
2020/12/08 08:59:55;;;;;;;8.33;2.20;;;;;;;3.57;100.00;97823.43;3862703;75;393948;-76
2020/12/08 09:05:00;;;;;;;5.40;4.80;;;;;;;3.72;100.00;97819.59;3886428;75;390897;-76
2020/12/08 09:10:05;;;;;;;7.33;2.20;;;;;;;3.89;100.00;97828.37;3886257;75;394185;-76
2020/12/08 09:15:11;;;;;;;18.40;5.10;;;;;;;3.98;100.00;97833.66;3862711;75;398164;-76
2020/12/08 09:20:16;;;;;;;6.27;4.40;;;;;;;4.10;100.00;97830.55;3886291;74;396257;-76
2020/12/08 09:25:23;;;;;;;6.17;4.00;;;;;;;4.26;100.00;97823.58;3886232;75;396060;-77
2020/12/08 09:30:28;;;;;;;13.10;5.23;;;;;;;4.39;100.00;97826.09;3887598;75;394918;-77
2020/12/08 09:35:33;;;;;;;2.80;2.50;;;;;;;4.54;100.00;97841.86;3886116;75;396047;-77
2020/12/08 09:40:41;;;;;;;5.93;4.20;;;;;;;4.62;100.00;97838.73;3862988;75;396027;-75
2020/12/08 09:45:46;;;;;;;9.27;3.10;;;;;;;4.68;100.00;97848.09;3886268;75;393946;-75
2020/12/08 09:50:51;;;;;;;3.00;2.80;;;;;;;4.81;100.00;97858.17;3885843;75;396024;-74
2020/12/08 09:55:57;;;;;;;4.70;3.40;;;;;;;4.80;100.00;97863.45;3840784;75;396322;-77
2020/12/08 10:01:02;;;;;;;12.73;3.70;;;;;;;5.06;100.00;97857.55;3853220;75;400232;-75
2020/12/08 10:06:07;;;;;;;7.13;2.87;;;;;;;6.39;100.00;97838.06;3852826;75;394000;-75
2020/12/08 10:11:13;;;;;;;10.33;4.17;;;;;;;7.55;100.00;97847.30;3853442;75;391911;-75
2020/12/08 10:16:20;;;;;;;6.83;4.83;;;;;;;8.07;93.11;97846.62;3852864;75;397044;-76
2020/12/08 10:21:26;;;;;;;5.70;2.87;;;;;;;8.09;88.63;97845.58;3829709;75;396993;-76
2020/12/08 10:26:31;;;;;;;9.43;5.30;;;;;;;7.34;92.35;97831.90;3829905;75;397052;-76
2020/12/08 10:31:36;;;;;;;6.23;4.10;;;;;;;6.84;95.62;97827.92;3829779;75;397036;-77
2020/12/08 10:36:43;;;;;;;18.17;5.43;;;;;;;6.97;97.11;97826.22;3829823;75;389868;-76
2020/12/08 10:41:48;;;;;;;6.23;4.03;;;;;;;6.84;96.39;97826.55;3827362;75;397033;-77
2020/12/08 10:46:53;;;;;;;18.23;3.80;;;;;;;6.45;100.00;97814.59;3852676;75;394243;-76
2020/12/08 10:51:59;;;;;;;5.30;3.03;;;;;;;6.48;100.00;97826.66;3830007;75;397001;-77
2020/12/08 10:57:04;;;;;;;9.03;5.03;;;;;;;7.23;100.00;97814.81;3856279;74;397234;-77
2020/12/08 11:02:09;;;;;;;7.70;4.83;;;;;;;7.80;94.42;97819.00;3856584;75;397294;-77
2020/12/08 11:07:14;;;;;;;5.83;3.03;;;;;;;8.14;92.17;97828.10;3854574;75;397048;-76
2020/12/08 11:12:19;;;;;;;9.20;6.47;;;;;;;8.18;87.36;97828.08;3855680;75;386583;-75
2020/12/08 11:17:24;;;;;;;8.00;4.00;;;;;;;8.16;88.97;97823.02;3855305;75;396070;-76
2020/12/08 11:22:31;;;;;;;4.53;4.07;;;;;;;8.19;89.53;97822.78;3855736;75;397317;-76
2020/12/08 11:27:36;;;;;;;5.70;4.13;;;;;;;8.21;90.36;97819.05;3854324;75;397040;-75
2020/12/08 11:32:41;;;;;;;9.37;5.70;;;;;;;8.17;88.37;97820.47;3854963;75;397094;-76
2020/12/08 11:37:46;;;;;;;3.43;3.10;;;;;;;7.92;88.54;97812.38;3854417;75;397041;-76
2020/12/08 11:42:51;;;;;;;10.30;5.10;;;;;;;7.83;90.12;97807.23;3854709;75;396038;-76
2020/12/08 11:47:56;;;;;;;3.17;2.87;;;;;;;7.54;89.81;97797.25;3854341;75;397029;-76
2020/12/08 11:53:01;;;;;;;8.63;4.70;;;;;;;7.28;88.67;97799.92;3854097;75;393995;-76
2020/12/08 11:58:07;;;;;;;5.23;3.37;;;;;;;7.15;89.79;97809.23;3871965;74;397039;-77
2020/12/08 12:03:12;;;;;;;3.53;3.20;;;;;;;6.95;92.83;97814.91;3863347;75;397334;-78
2020/12/08 12:08:17;;;;;;;8.27;3.73;;;;;;;6.85;92.79;97812.48;3887171;74;395192;-77
2020/12/08 12:13:22;;;;;;;4.50;3.57;;;;;;;6.80;93.31;97806.67;3862527;75;397027;-76
2020/12/08 12:18:28;;;;;;;7.77;3.30;;;;;;;6.70;91.63;97806.96;3886387;75;393193;-77
2020/12/08 12:23:33;;;;;;;2.97;2.67;;;;;;;6.53;91.93;97803.80;3859405;75;396265;-77
2020/12/08 12:28:38;;;;;;;8.53;3.23;;;;;;;6.53;94.31;97803.03;3818830;76;397045;-77
2020/12/08 12:33:43;;;;;;;3.90;2.97;;;;;;;6.70;92.49;97808.33;3859498;75;397032;-77
2020/12/08 12:38:48;;;;;;;8.40;4.73;;;;;;;6.56;91.97;97811.77;3859649;76;396992;-77
2020/12/08 12:43:54;;;;;;;3.33;2.50;;;;;;;6.56;92.86;97811.19;3859126;76;397259;-77
2020/12/08 12:49:00;;;;;;;3.97;2.80;;;;;;;6.62;92.46;97810.17;3858181;75;397084;-77
2020/12/08 12:54:06;;;;;;;5.23;3.13;;;;;;;7.00;92.22;97804.92;3860316;73;396990;-76
2020/12/08 12:59:11;;;;;;;6.30;3.27;;;;;;;7.10;91.63;97789.00;3904605;73;397022;-77
2020/12/08 13:04:16;;;;;;;6.73;3.43;;;;;;;7.00;93.15;97788.52;3841486;75;393948;-77
2020/12/08 13:09:22;;;;;;;3.97;3.53;;;;;;;6.85;91.72;97787.88;3743902;77;396298;-76
2020/12/08 13:14:27;;;;;;;11.73;3.80;;;;;;;6.78;92.28;97800.86;3899670;74;396277;-76
2020/12/08 13:19:32;;;;;;;9.73;4.20;;;;;;;6.74;90.90;97794.62;3891800;74;395158;-76
2020/12/08 13:24:37;;;;;;;4.23;3.00;;;;;;;6.88;87.78;97799.38;3866463;75;394957;-77
2020/12/08 13:29:42;;;;;;;3.63;2.83;;;;;;;6.98;88.54;97788.14;3847239;75;397047;-76
2020/12/08 13:34:48;;;;;;;3.90;2.27;;;;;;;7.00;86.86;97789.88;3825268;73;396390;-78
2020/12/08 13:39:53;;;;;;;4.83;2.63;;;;;;;6.97;86.22;97782.48;3933284;74;397068;-76
2020/12/08 13:44:58;;;;;;;3.03;2.00;;;;;;;6.83;85.53;97788.10;3933354;74;395146;-76
2020/12/08 13:50:04;;;;;;;5.03;2.33;;;;;;;6.85;86.22;97789.84;3933293;73;397025;-76
2020/12/08 13:55:09;;;;;;;8.17;3.33;;;;;;;6.73;87.47;97795.23;3919591;74;396062;-77
2020/12/08 14:00:14;;;;;;;8.20;3.37;;;;;;;6.41;87.85;97800.77;3844567;75;391893;-77
2020/12/08 14:05:19;;;;;;;4.40;3.17;;;;;;;6.25;89.45;97792.32;3827511;76;397004;-76
2020/12/08 14:10:25;;;;;;;5.53;3.10;;;;;;;6.13;89.36;97788.72;3827489;75;396302;-76
2020/12/08 14:15:30;;;;;;;5.13;3.07;;;;;;;6.03;90.67;97784.10;3828092;76;397290;-77
2020/12/08 14:20:36;;;;;;;3.13;2.83;;;;;;;5.95;90.34;97778.50;3827162;75;397052;-76
2020/12/08 14:25:41;;;;;;;6.30;3.80;;;;;;;5.89;92.01;97781.47;3827540;76;388726;-76
2020/12/08 14:30:46;;;;;;;4.20;2.60;;;;;;;5.73;92.48;97787.98;3827372;76;397098;-76
2020/12/08 14:35:52;;;;;;;5.80;2.47;;;;;;;5.53;93.62;97783.41;3827208;75;394910;-76
2020/12/08 14:40:57;;;;;;;6.73;3.23;;;;;;;5.41;94.75;97783.08;3827531;75;394924;-76
2020/12/08 14:46:02;;;;;;;3.10;2.80;;;;;;;5.24;95.41;97786.66;3817202;75;396122;-76
2020/12/08 14:51:07;;;;;;;2.97;2.80;;;;;;;5.04;97.64;97790.98;3816484;76;396074;-77
2020/12/08 14:56:17;;;;;;;4.10;2.83;;;;;;;4.93;98.97;97801.13;3815577;76;396304;-76
2020/12/08 15:01:24;;;;;;;3.20;2.90;;;;;;;4.72;98.64;97799.05;3878827;74;394914;-76
2020/12/08 15:06:32;;;;;;;6.70;2.30;;;;;;;4.49;100.00;97798.67;3924937;75;396195;-75
2020/12/08 15:11:36;;;;;;;3.20;2.17;;;;;;;4.20;100.00;97804.70;3925216;74;397049;-75
2020/12/08 15:16:45;;;;;;;4.83;2.20;;;;;;;4.00;100.00;97811.70;3925354;74;396994;-75
2020/12/08 15:21:50;;;;;;;3.53;3.33;;;;;;;3.96;100.00;97808.77;3925176;74;396275;-75
2020/12/08 15:26:55;;;;;;;2.43;2.20;;;;;;;3.79;100.00;97816.91;3925147;74;397229;-76
2020/12/08 15:32:00;;;;;;;3.03;2.23;;;;;;;3.57;100.00;97816.63;3925265;74;395046;-75
2020/12/08 15:37:05;;;;;;;1.10;1.00;;;;;;;3.49;100.00;97819.92;3924996;75;392150;-75
2020/12/08 15:42:10;;;;;;;5.73;4.30;;;;;;;3.42;100.00;97828.63;3925046;74;396309;-75
2020/12/08 15:47:15;;;;;;;2.70;2.50;;;;;;;3.26;100.00;97839.03;3925031;74;396080;-75
2020/12/08 15:52:20;;;;;;;7.70;3.70;;;;;;;3.14;100.00;97844.81;3924347;74;391091;-76
2020/12/08 15:57:25;;;;;;;6.00;2.10;;;;;;;3.02;100.00;97849.20;3924757;74;396014;-75
2020/12/08 16:02:31;;;;;;;8.60;3.57;;;;;;;2.92;100.00;97848.55;3882084;74;396022;-76
2020/12/08 16:07:36;;;;;;;2.43;2.17;;;;;;;2.94;100.00;97838.09;3907663;74;396089;-75
2020/12/08 16:12:41;;;;;;;3.73;3.37;;;;;;;2.97;100.00;97846.86;3891528;75;396276;-75
2020/12/08 16:17:47;;;;;;;2.03;1.53;;;;;;;2.77;100.00;97850.98;3871868;75;396280;-75
2020/12/08 16:22:52;;;;;;;2.83;2.40;;;;;;;2.58;100.00;97862.11;3985308;73;396040;-76
2020/12/08 16:27:57;;;;;;;3.93;2.80;;;;;;;2.56;100.00;97856.27;3937976;73;396079;-75
2020/12/08 16:33:07;;;;;;;7.50;1.87;;;;;;;2.42;100.00;97860.80;3937167;73;396240;-75
2020/12/08 16:38:10;;;;;;;5.53;3.40;;;;;;;2.31;100.00;97851.02;3891199;75;396381;-75
2020/12/08 16:43:15;;;;;;;5.03;2.20;;;;;;;2.13;100.00;97863.08;3850121;75;392256;-75
2020/12/08 16:48:20;;;;;;;3.37;3.07;;;;;;;2.30;100.00;97861.66;3860371;75;396117;-77
2020/12/08 16:53:25;;;;;;;2.00;1.90;;;;;;;2.29;100.00;97860.09;3859346;75;396110;-77
2020/12/08 16:58:30;;;;;;;6.90;2.83;;;;;;;2.24;100.00;97859.09;3858807;75;396086;-77
2020/12/08 17:03:35;;;;;;;8.33;3.63;;;;;;;2.15;100.00;97869.47;3857818;75;396066;-76
2020/12/08 17:08:41;;;;;;;1.50;1.40;;;;;;;2.14;100.00;97876.05;3806174;75;393945;-76
2020/12/08 17:13:46;;;;;;;6.37;2.03;;;;;;;1.92;100.00;97872.93;3829636;76;396071;-76
2020/12/08 17:18:51;;;;;;;4.27;3.87;;;;;;;1.91;100.00;97881.63;3820708;76;396024;-76
2020/12/08 17:23:56;;;;;;;2.50;2.30;;;;;;;1.80;100.00;97886.17;3820717;75;396040;-76
2020/12/08 17:29:02;;;;;;;2.50;2.30;;;;;;;1.71;100.00;97891.66;3821704;75;396093;-76
2020/12/08 17:34:07;;;;;;;3.03;2.83;;;;;;;1.63;100.00;97892.73;3821286;75;396147;-76
2020/12/08 17:39:12;;;;;;;7.97;3.50;;;;;;;1.59;100.00;97891.92;3821244;75;396060;-76
2020/12/08 17:44:17;;;;;;;3.63;1.97;;;;;;;1.54;100.00;97905.01;3820599;75;396114;-76
2020/12/08 17:49:22;;;;;;;7.13;4.60;;;;;;;1.46;100.00;97905.48;3821620;75;396062;-76
2020/12/08 17:54:27;;;;;;;3.53;3.33;;;;;;;1.46;100.00;97907.42;3820700;75;396027;-76
2020/12/08 17:59:32;;;;;;;1.30;1.20;;;;;;;1.27;100.00;97904.84;3794732;74;396027;-76
2020/12/08 18:04:38;;;;;;;4.30;3.60;;;;;;;1.15;100.00;97901.79;3827655;76;396071;-76
2020/12/08 18:09:43;;;;;;;2.03;1.73;;;;;;;1.12;100.00;97907.95;3863296;73;388766;-75
2020/12/08 18:14:48;;;;;;;4.50;2.47;;;;;;;1.17;100.00;97909.56;3876223;75;394978;-75
2020/12/08 18:19:53;;;;;;;7.83;4.53;;;;;;;1.13;100.00;97909.49;3818873;76;396043;-75
2020/12/08 18:24:58;;;;;;;2.50;2.03;;;;;;;1.05;100.00;97911.13;3821724;75;396067;-75
2020/12/08 18:30:05;;;;;;;5.40;2.20;;;;;;;1.00;100.00;97927.11;3876907;75;383530;-75
2020/12/08 18:35:13;;;;;;;3.10;2.27;;;;;;;0.99;100.00;97931.55;3860219;75;396018;-75
2020/12/08 18:40:18;;;;;;;2.70;2.57;;;;;;;1.02;100.00;97928.09;3860980;75;393939;-75
2020/12/08 18:45:24;;;;;;;4.80;3.40;;;;;;;1.05;100.00;97934.91;3860057;75;396267;-75
2020/12/08 18:50:33;;;;;;;3.80;2.30;;;;;;;1.06;100.00;97939.18;3860400;75;396304;-75
2020/12/08 18:55:36;;;;;;;2.90;2.70;;;;;;;1.05;100.00;97941.67;3861286;75;396129;-75
2020/12/08 19:00:42;;;;;;;2.40;2.20;;;;;;;1.05;100.00;97941.67;3852388;75;394186;-76
2020/12/08 19:05:47;;;;;;;4.50;1.93;;;;;;;1.02;100.00;97950.55;3847079;75;396085;-75
2020/12/08 19:10:52;;;;;;;15.93;6.43;;;;;;;0.97;100.00;97944.07;3846860;75;396018;-75
2020/12/08 19:15:57;;;;;;;5.87;4.20;;;;;;;0.95;100.00;97948.30;3839461;75;396020;-75
2020/12/08 19:21:02;;;;;;;12.97;6.97;;;;;;;0.99;100.00;97951.27;3850235;75;400256;-75
2020/12/08 19:26:07;;;;;;;4.10;3.53;;;;;;;1.13;100.00;97949.34;3854358;75;389776;-75
2020/12/08 19:31:12;;;;;;;5.97;2.93;;;;;;;1.23;100.00;97960.32;3860485;75;396096;-75
2020/12/08 19:36:19;;;;;;;3.93;3.33;;;;;;;1.11;100.00;97956.48;3860701;75;396077;-75
2020/12/08 19:41:26;;;;;;;32.53;4.53;;;;;;;1.20;100.00;97950.23;3860912;75;396063;-75
2020/12/08 19:46:31;;;;;;;4.53;4.23;;;;;;;1.02;100.00;97960.02;3861287;75;396065;-75
2020/12/08 19:51:38;;;;;;;4.33;3.07;;;;;;;0.85;100.00;97959.73;3860357;75;396071;-75
2020/12/08 19:56:45;;;;;;;2.60;2.10;;;;;;;0.81;100.00;97959.67;3859878;75;395020;-75
2020/12/08 20:01:50;;;;;;;2.60;1.73;;;;;;;0.79;100.00;97957.92;3847448;74;396074;-75
2020/12/08 20:06:55;;;;;;;3.30;3.00;;;;;;;0.83;100.00;97952.57;3846292;76;391864;-76
2020/12/08 20:12:01;;;;;;;3.50;1.80;;;;;;;0.89;100.00;97955.94;3846123;76;396031;-76
2020/12/08 20:17:06;;;;;;;2.47;2.20;;;;;;;1.07;100.00;97948.87;3851276;75;387964;-76
2020/12/08 20:22:11;;;;;;;1.93;1.73;;;;;;;1.19;100.00;97951.94;3861382;75;393951;-76
2020/12/08 20:27:16;;;;;;;6.50;1.50;;;;;;;1.21;100.00;97953.72;3859826;75;396101;-76
2020/12/08 20:32:21;;;;;;;1.47;1.37;;;;;;;1.22;100.00;97952.58;3860673;75;383535;-75
2020/12/08 20:37:28;;;;;;;2.77;2.57;;;;;;;1.36;100.00;97954.12;3859525;75;396034;-75
2020/12/08 20:42:34;;;;;;;1.20;1.10;;;;;;;1.29;100.00;97948.05;3860209;75;391893;-75
2020/12/08 20:47:41;;;;;;;4.37;1.50;;;;;;;1.19;100.00;97945.17;3860682;75;393943;-75
2020/12/08 20:52:46;;;;;;;7.50;2.57;;;;;;;1.30;100.00;97944.75;3861039;75;396022;-76
2020/12/08 20:57:51;;;;;;;1.40;1.30;;;;;;;1.28;100.00;97947.84;3861960;75;393192;-75
2020/12/08 21:02:56;;;;;;;3.30;1.53;;;;;;;1.28;100.00;97957.31;3872142;74;395222;-75
2020/12/08 21:08:02;;;;;;;2.30;2.10;;;;;;;1.32;100.00;97952.72;3863133;75;396034;-76
2020/12/08 21:13:07;;;;;;;18.73;3.20;;;;;;;1.29;100.00;97960.23;3862460;75;396183;-75
2020/12/08 21:18:12;;;;;;;1.63;1.07;;;;;;;1.28;100.00;97957.87;3936080;73;392133;-76
2020/12/08 21:23:17;;;;;;;1.67;1.57;;;;;;;1.41;100.00;97965.42;3968349;73;395225;-76
2020/12/08 21:28:22;;;;;;;3.03;2.23;;;;;;;1.46;100.00;97970.51;3977185;73;383525;-75
2020/12/08 21:33:27;;;;;;;2.97;2.70;;;;;;;1.53;100.00;97965.21;3968965;73;396039;-75
2020/12/08 21:38:32;;;;;;;1.77;1.20;;;;;;;1.51;100.00;97963.98;3968759;73;394030;-75
2020/12/08 21:43:38;;;;;;;6.43;2.13;;;;;;;1.56;100.00;97963.10;3968903;73;395206;-75
2020/12/08 21:48:44;;;;;;;1.63;1.30;;;;;;;1.54;100.00;97974.11;3968944;73;391915;-76
2020/12/08 21:53:49;;;;;;;2.97;1.17;;;;;;;1.54;100.00;97978.94;3969781;73;387979;-76
2020/12/08 21:58:54;;;;;;;1.77;1.67;;;;;;;1.68;100.00;97968.31;3920697;73;385643;-76
2020/12/08 22:03:59;;;;;;;4.40;3.70;;;;;;;1.63;100.00;97974.03;3858503;73;393944;-76
2020/12/08 22:09:05;;;;;;;2.07;1.97;;;;;;;1.60;100.00;97982.91;3859266;76;393219;-76
2020/12/08 22:14:11;;;;;;;8.07;3.93;;;;;;;1.65;100.00;97988.00;3884483;74;392909;-76
2020/12/08 22:19:17;;;;;;;2.17;2.00;;;;;;;1.68;100.00;97986.69;3899636;74;383788;-77
2020/12/08 22:24:22;;;;;;;2.60;1.80;;;;;;;1.69;100.00;97984.78;3898762;74;396123;-76
2020/12/08 22:29:28;;;;;;;4.20;2.87;;;;;;;1.82;100.00;97988.81;3899201;74;386757;-76
2020/12/08 22:34:33;;;;;;;5.23;1.80;;;;;;;1.75;100.00;98002.28;3898127;74;395039;-76
2020/12/08 22:39:44;;;;;;;3.17;2.97;;;;;;;1.74;100.00;98002.06;3897619;74;396070;-77
2020/12/08 22:44:45;;;;;;;2.07;1.27;;;;;;;1.71;100.00;98012.28;3897966;74;394988;-76
2020/12/08 22:49:50;;;;;;;4.60;3.00;;;;;;;1.72;100.00;98017.91;3899081;74;396113;-76
2020/12/08 22:54:57;;;;;;;1.57;1.27;;;;;;;1.79;100.00;98003.89;3899106;74;396358;-77
2020/12/08 23:00:09;;;;;;;2.30;1.10;;;;;;;1.75;100.00;97994.91;3860504;74;383789;-77
2020/12/08 23:05:17;;;;;;;4.80;1.93;;;;;;;1.75;100.00;97992.20;3832617;76;396078;-76
2020/12/08 23:10:19;;;;;;;3.37;2.30;;;;;;;1.85;100.00;97979.95;3749563;77;394996;-76
2020/12/08 23:15:25;;;;;;;2.93;1.77;;;;;;;1.85;100.00;97983.42;3819119;75;396028;-76
2020/12/08 23:20:30;;;;;;;3.03;2.80;;;;;;;1.93;100.00;97982.95;3847042;76;396123;-77
2020/12/08 23:25:35;;;;;;;8.73;6.23;;;;;;;1.83;100.00;97974.88;3825719;76;396076;-76
2020/12/08 23:30:40;;;;;;;2.20;2.00;;;;;;;1.80;100.00;97985.12;3807200;76;396021;-77
2020/12/08 23:35:46;;;;;;;3.70;3.40;;;;;;;1.75;100.00;97984.66;3806814;76;396301;-76
2020/12/08 23:40:51;;;;;;;6.90;2.83;;;;;;;1.75;100.00;97992.79;3807194;76;396274;-76
2020/12/08 23:45:56;;;;;;;6.97;3.63;;;;;;;1.74;100.00;97986.57;3807165;76;396018;-76